createdAt,value
2023-02-26T00:01:53.430Z,3.70
2023-02-26T00:07:00.171Z,3.60
2023-02-26T00:12:03.374Z,3.60
2023-02-26T00:17:26.576Z,3.60
2023-02-26T00:22:29.318Z,3.50
2023-02-26T00:27:31.561Z,3.50
2023-02-26T00:32:37.002Z,3.50
2023-02-26T00:38:01.450Z,3.40
2023-02-26T00:43:04.723Z,3.40
2023-02-26T00:48:36.016Z,3.40
2023-02-26T00:53:46.499Z,3.30
2023-02-26T00:58:48.822Z,3.30
2023-02-26T01:03:53.205Z,3.30
2023-02-26T01:09:02.358Z,3.30
2023-02-26T01:14:05.591Z,3.20
2023-02-26T01:19:18.842Z,3.20
2023-02-26T01:24:23.158Z,3.20
2023-02-26T01:29:25.632Z,3.20
2023-02-26T01:34:37.045Z,3.10
2023-02-26T01:39:44.195Z,3.10
2023-02-26T01:44:56.277Z,3.10
2023-02-26T01:50:11.466Z,3.00
2023-02-26T01:55:14.438Z,3.00
2023-02-26T02:00:18.199Z,3.00
2023-02-26T02:05:25.935Z,2.90
2023-02-26T02:10:28.558Z,2.90
2023-02-26T02:15:40.361Z,2.80
2023-02-26T02:21:25.634Z,2.80
2023-02-26T02:26:50.425Z,2.80
2023-02-26T02:31:57.758Z,2.70
2023-02-26T02:37:04.537Z,2.70
2023-02-26T02:42:16.855Z,2.70
2023-02-26T02:47:22.753Z,2.60
2023-02-26T02:52:30.598Z,2.70
2023-02-26T02:57:37.267Z,2.60
2023-02-26T03:02:49.519Z,2.60
2023-02-26T03:07:55.735Z,2.60
2023-02-26T03:12:57.864Z,2.60
2023-02-26T03:18:09.227Z,2.60
2023-02-26T03:23:23.784Z,2.60
2023-02-26T03:28:30.950Z,2.60
2023-02-26T03:33:44.722Z,2.60
2023-02-26T03:38:51.751Z,2.50
2023-02-26T03:43:55.576Z,2.50
2023-02-26T03:49:04.740Z,2.50
2023-02-26T03:54:14.682Z,2.50
2023-02-26T03:59:17.835Z,2.50
2023-02-26T04:04:26.846Z,2.40
2023-02-26T04:09:29.517Z,2.40
2023-02-26T04:14:31.691Z,2.30
2023-02-26T04:19:35.230Z,2.30
2023-02-26T04:24:37.480Z,2.30
2023-02-26T04:29:39.598Z,2.30
2023-02-26T04:34:43.299Z,2.20
2023-02-26T04:39:45.409Z,2.20
2023-02-26T04:44:47.533Z,2.20
2023-02-26T04:49:51.090Z,2.20
2023-02-26T04:54:53.194Z,2.20
2023-02-26T04:59:55.404Z,2.10
2023-02-26T05:04:58.942Z,2.20
2023-02-26T05:10:01.024Z,2.20
2023-02-26T05:15:03.391Z,2.10
2023-02-26T05:20:08.437Z,2.20
2023-02-26T05:25:11.498Z,2.20
2023-02-26T05:30:15.833Z,2.20
2023-02-26T05:35:19.463Z,2.10
2023-02-26T05:40:22.676Z,2.20
2023-02-26T05:45:24.861Z,2.10
2023-02-26T05:50:28.582Z,2.10
2023-02-26T05:55:30.711Z,2.10
2023-02-26T06:00:32.977Z,2.10
2023-02-26T06:05:36.520Z,2.00
2023-02-26T06:10:38.840Z,2.00
2023-02-26T06:15:41.002Z,2.00
2023-02-26T06:20:44.546Z,2.00
2023-02-26T06:25:46.674Z,2.00
2023-02-26T06:30:48.849Z,2.00
2023-02-26T06:35:52.570Z,2.10
2023-02-26T06:40:54.733Z,2.30
2023-02-26T06:45:58.370Z,2.80
2023-02-26T06:51:01.996Z,3.30
2023-02-26T06:56:04.770Z,3.80
2023-02-26T07:01:06.867Z,4.00
2023-02-26T07:06:26.471Z,4.20
2023-02-26T07:11:29.595Z,4.60
2023-02-26T07:16:31.840Z,5.60
2023-02-26T07:21:35.437Z,6.80
2023-02-26T07:26:37.566Z,8.10
2023-02-26T07:31:40.209Z,8.90
2023-02-26T07:36:43.928Z,9.50
2023-02-26T07:41:46.105Z,10.30
2023-02-26T07:46:48.244Z,11.20
2023-02-26T07:51:51.975Z,12.30
2023-02-26T07:56:54.360Z,13.30
2023-02-26T08:01:56.666Z,14.20
2023-02-26T08:07:00.476Z,15.00
2023-02-26T08:12:02.789Z,15.80
2023-02-26T08:17:04.850Z,16.50
2023-02-26T08:22:08.419Z,17.10
2023-02-26T08:27:12.174Z,17.70
2023-02-26T08:32:16.874Z,18.20
2023-02-26T08:37:20.569Z,18.70
2023-02-26T08:42:22.872Z,18.90
2023-02-26T08:47:28.930Z,19.10
2023-02-26T08:52:32.820Z,19.40
2023-02-26T08:57:34.938Z,19.60
2023-02-26T09:02:37.198Z,19.70
2023-02-26T09:07:46.932Z,19.70
2023-02-26T09:12:49.350Z,19.80
2023-02-26T09:17:51.512Z,20.00
2023-02-26T09:22:55.083Z,19.80
2023-02-26T09:27:58.681Z,19.50
2023-02-26T09:33:01.081Z,19.10
2023-02-26T09:38:04.686Z,18.70
2023-02-26T09:43:22.224Z,18.40
2023-02-26T09:48:26.424Z,18.00
2023-02-26T09:53:33.354Z,17.60
2023-02-26T09:58:39.599Z,17.40
2023-02-26T10:03:55.809Z,17.10
2023-02-26T10:09:22.496Z,16.50
2023-02-26T10:14:30.576Z,16.20
2023-02-26T10:19:37.501Z,16.30
2023-02-26T10:24:45.725Z,16.60
2023-02-26T10:29:56.364Z,16.60
2023-02-26T10:35:00.980Z,16.70
2023-02-26T10:40:13.322Z,16.60
2023-02-26T10:45:28.738Z,16.40
2023-02-26T10:50:31.978Z,16.30
2023-02-26T10:55:41.018Z,16.40
2023-02-26T11:00:45.394Z,16.70
2023-02-26T11:05:51.630Z,16.90
2023-02-26T11:11:06.626Z,17.10
2023-02-26T11:16:18.848Z,17.20
2023-02-26T11:21:25.008Z,17.10
2023-02-26T11:26:35.102Z,16.90
2023-02-26T11:31:41.945Z,17.10
2023-02-26T11:36:45.677Z,17.00
2023-02-26T11:41:51.224Z,16.90
2023-02-26T11:46:55.972Z,16.80
2023-02-26T11:52:16.653Z,16.80
2023-02-26T11:57:24.759Z,16.80
2023-02-26T12:02:32.493Z,16.80
2023-02-26T12:07:34.895Z,16.50
2023-02-26T12:12:50.198Z,16.60
2023-02-26T12:18:15.787Z,16.90
2023-02-26T12:23:40.717Z,17.30
2023-02-26T12:29:13.155Z,17.50
2023-02-26T12:34:39.550Z,17.60
2023-02-26T12:39:53.679Z,17.90
2023-02-26T12:45:12.840Z,17.70
2023-02-26T12:50:32.588Z,17.80
2023-02-26T12:55:43.310Z,17.90
2023-02-26T13:01:15.833Z,17.90
2023-02-26T13:06:59.506Z,18.00
2023-02-26T13:12:12.008Z,18.10
2023-02-26T13:17:24.514Z,18.20
2023-02-26T13:22:31.141Z,18.20
2023-02-26T13:27:36.100Z,18.30
2023-02-26T13:32:42.451Z,18.40
2023-02-26T13:37:49.921Z,18.00
2023-02-26T13:43:07.768Z,17.60
2023-02-26T13:48:22.920Z,17.40
2023-02-26T13:53:51.913Z,17.10
2023-02-26T13:59:00.838Z,16.70
2023-02-26T14:04:25.428Z,16.10
2023-02-26T14:09:46.085Z,15.70
2023-02-26T14:15:26.771Z,15.30
2023-02-26T14:20:32.686Z,15.00
2023-02-26T14:25:39.441Z,14.80
2023-02-26T14:30:47.407Z,14.50
2023-02-26T14:35:53.117Z,14.20
2023-02-26T14:41:06.481Z,13.90
2023-02-26T14:46:11.248Z,13.60
2023-02-26T14:51:26.035Z,13.40
2023-02-26T14:56:35.785Z,13.10
2023-02-26T15:01:47.623Z,13.00
2023-02-26T15:07:28.955Z,12.70
2023-02-26T15:12:43.827Z,12.60
2023-02-26T15:18:15.213Z,12.40
2023-02-26T15:23:38.473Z,12.30
2023-02-26T15:28:41.820Z,12.10
2023-02-26T15:33:44.244Z,11.80
2023-02-26T15:38:49.809Z,11.70
2023-02-26T15:43:57.322Z,11.50
2023-02-26T15:49:02.953Z,11.30
2023-02-26T15:54:07.245Z,11.10
2023-02-26T15:59:13.835Z,11.00
2023-02-26T16:04:18.190Z,10.80
2023-02-26T16:09:28.446Z,10.60
2023-02-26T16:14:36.204Z,10.40
2023-02-26T16:19:41.984Z,10.20
2023-02-26T16:24:48.701Z,10.10
2023-02-26T16:29:52.936Z,10.00
2023-02-26T16:34:56.575Z,9.80
2023-02-26T16:40:15.658Z,9.80
2023-02-26T16:45:42.090Z,9.60
2023-02-26T16:50:44.560Z,9.50
2023-02-26T16:55:58.644Z,9.40
2023-02-26T17:01:08.118Z,9.30
2023-02-26T17:06:13.462Z,9.20
2023-02-26T17:11:25.242Z,9.10
2023-02-26T17:16:27.835Z,8.90
2023-02-26T17:21:30.926Z,8.80
2023-02-26T17:26:34.511Z,8.70
2023-02-26T17:31:36.742Z,8.70
2023-02-26T17:36:38.892Z,8.60
2023-02-26T17:41:44.858Z,8.50
2023-02-26T17:46:46.996Z,8.30
2023-02-26T17:51:49.320Z,8.20
2023-02-26T17:56:52.936Z,8.00
2023-02-26T18:01:55.156Z,7.90
2023-02-26T18:06:57.324Z,7.80
2023-02-26T18:12:00.889Z,7.70
2023-02-26T18:17:03.134Z,7.50
2023-02-26T18:22:05.341Z,7.40
2023-02-26T18:27:14.177Z,7.30
2023-02-26T18:32:18.744Z,7.20
2023-02-26T18:37:25.083Z,7.00
2023-02-26T18:42:28.913Z,6.90
2023-02-26T18:47:31.898Z,6.90
2023-02-26T18:52:34.492Z,6.90
2023-02-26T18:57:38.280Z,6.90
2023-02-26T19:02:41.117Z,6.90
2023-02-26T19:07:43.519Z,6.90
2023-02-26T19:12:50.211Z,6.90
2023-02-26T19:17:52.358Z,6.80
2023-02-26T19:22:54.756Z,6.70
2023-02-26T19:28:00.339Z,6.60
2023-02-26T19:33:03.176Z,6.60
2023-02-26T19:38:05.557Z,6.50
2023-02-26T19:43:10.013Z,6.40
2023-02-26T19:48:12.287Z,6.30
2023-02-26T19:53:14.412Z,6.10
2023-02-26T19:58:18.766Z,6.00
2023-02-26T20:03:21.937Z,5.90
2023-02-26T20:08:27.354Z,5.80
2023-02-26T20:13:31.137Z,5.70
2023-02-26T20:18:34.873Z,5.60
2023-02-26T20:23:38.743Z,5.50
2023-02-26T20:28:44.694Z,5.40
2023-02-26T20:33:46.880Z,5.30
2023-02-26T20:38:49.235Z,5.20
2023-02-26T20:43:54.147Z,5.10
2023-02-26T20:48:56.407Z,5.10
2023-02-26T20:53:58.600Z,5.00
2023-02-26T20:59:03.050Z,4.90
2023-02-26T21:04:08.360Z,4.80
2023-02-26T21:09:10.515Z,4.80
2023-02-26T21:14:14.353Z,4.70
2023-02-26T21:19:16.551Z,4.60
2023-02-26T21:24:18.673Z,4.50
2023-02-26T21:29:22.501Z,4.50
2023-02-26T21:34:33.396Z,4.40
2023-02-26T21:39:37.210Z,4.40
2023-02-26T21:44:41.038Z,4.40
2023-02-26T21:49:44.123Z,4.30
2023-02-26T21:54:46.305Z,4.30
2023-02-26T21:59:50.284Z,4.20
2023-02-26T22:04:52.401Z,4.20
2023-02-26T22:09:54.460Z,4.10
2023-02-26T22:14:58.104Z,4.10
2023-02-26T22:20:00.506Z,4.00
2023-02-26T22:25:03.133Z,3.90
2023-02-26T22:30:08.024Z,3.80
2023-02-26T22:35:11.282Z,3.80
2023-02-26T22:40:14.924Z,3.70
2023-02-26T22:45:18.717Z,3.70
2023-02-26T22:50:20.958Z,3.60
2023-02-26T22:55:23.079Z,3.60
2023-02-26T23:05:52.525Z,3.50
2023-02-26T23:10:55.678Z,3.40
2023-02-26T23:15:58.351Z,3.30
2023-02-26T23:21:02.167Z,3.20
2023-02-26T23:26:04.723Z,3.20
2023-02-26T23:31:07.036Z,3.10
2023-02-26T23:36:10.981Z,3.00
2023-02-26T23:41:13.093Z,3.00
2023-02-26T23:46:15.383Z,2.90
2023-02-26T23:51:18.896Z,2.90
2023-02-26T23:56:23.716Z,2.80
